Kiyomaru No.8 — JD2526 — position and weather

sailwx.info

Track history (hours):
 
Tides and Currents Weather Stations Pressure Air Temp Water Temp Dewpoint Dewpoint Depression Visibility Wind Speed Wind Dir Waves Ship Positions

Kiyomaru No.8

Last reported at 2018-Feb-14 15:51 UTC. Time now 2018-Feb-19 14:20 UTC.
Position N 34°53' E 139°41'.

Length 104 m; draft 6.7 m.

Type: Ship. MMSI: 431000384.

Date/timePositionNaut miles runAvg speedWind from/ knotsBaromVisibWave heightAir tempDewpointWater temp
2018-Feb-14 15:51N 34°53' E 139°41'5 8.5
2018-Feb-14 15:13N 34°59' E 139°41'2 6.8
2018-Feb-14 14:58N 35°00' E 139°42'4 8.1
2018-Feb-14 14:30N 35°04' E 139°43'4 8.7
2018-Feb-14 14:00N 35°08' E 139°45'5 9.5
2018-Feb-14 13:30N 35°13' E 139°46'510.4
2018-Feb-14 13:00N 35°18' E 139°44'611.1
2018-Feb-14 12:30N 35°23' E 139°42'510.8
2018-Feb-14 12:00N 35°27' E 139°47'510.7
2018-Feb-14 11:30N 35°30' E 139°52'510.4
2018-Feb-14 11:00N 35°30' E 139°59'2 3.8
2018-Feb-14 10:30N 35°29' E 140°01'0 0.0
2018-Feb-14 10:00N 35°29' E 140°01'0 0.0
2018-Feb-14 09:29N 35°29' E 140°01'0 0.0
2018-Feb-14 09:00N 35°29' E 140°01'0 0.0
2018-Feb-14 08:30N 35°29' E 140°01'0 0.0
2018-Feb-14 08:00N 35°29' E 140°01'0 0.0
2018-Feb-14 07:30N 35°29' E 140°01'0 0.0
2018-Feb-14 06:59N 35°29' E 140°01'0 0.0
2018-Feb-14 06:30N 35°29' E 140°01'0 0.0
2018-Feb-14 05:59N 35°29' E 140°01'0 0.0
2018-Feb-14 05:30N 35°29' E 140°01'0 0.0
2018-Feb-14 05:00N 35°29' E 140°01'0 0.0
2018-Feb-14 04:30N 35°29' E 140°01'0 0.0
2018-Feb-14 04:00N 35°29' E 140°01'0 0.0
2018-Feb-14 03:30N 35°29' E 140°01'1 2.1
2018-Feb-14 03:00N 35°29' E 139°60'611.6
2018-Feb-14 02:30N 35°29' E 139°53'612.3
2018-Feb-14 02:00N 35°25' E 139°47'612.2
2018-Feb-14 01:30N 35°19' E 139°44'611.8
2018-Feb-14 01:00N 35°14' E 139°47'612.1
2018-Feb-14 00:30N 35°08' E 139°46'612.2
2018-Feb-14 00:00N 35°02' E 139°44'1010.3
2018-Feb-13 23:02N 34°52' E 139°47'112.0
2018-Feb-13 22:59N 34°52' E 139°48'1212.2
2018-Feb-13 21:59N 34°54' E 140°02'612.4
2018-Feb-13 21:28N 34°58' E 140°09'1 0.0
2018-Feb-12 12:31N 34°57' E 140°08'012.1
2018-Feb-12 12:30N 34°57' E 140°08'21 8.6
2018-Feb-12 10:06N 34°58' E 139°43'3 9.8
2018-Feb-12 09:46N 35°02' E 139°43'3 9.1
2018-Feb-12 09:28N 35°04' E 139°44'4 9.3
2018-Feb-12 09:00N 35°09' E 139°45'510.4
2018-Feb-12 08:30N 35°14' E 139°46'611.9
2018-Feb-12 08:00N 35°19' E 139°43'510.8
2018-Feb-12 07:31N 35°24' E 139°43'510.8
2018-Feb-12 07:00N 35°28' E 139°49'510.5
2018-Feb-12 06:31N 35°30' E 139°54'510.0
2018-Feb-12 06:01N 35°29' E 140°00'1 1.0
2018-Feb-12 05:30N 35°29' E 140°01'0 0.0
2018-Feb-12 05:00N 35°29' E 140°01'0 0.0
2018-Feb-12 04:30N 35°29' E 140°01'0 0.0
2018-Feb-12 04:00N 35°29' E 140°01'0 0.0
2018-Feb-12 03:30N 35°29' E 140°01'0 0.0
2018-Feb-12 03:00N 35°29' E 140°01'0 0.0
2018-Feb-12 02:29N 35°29' E 140°01'0 0.0
2018-Feb-12 02:00N 35°29' E 140°01'0 0.0
2018-Feb-12 01:30N 35°29' E 140°01'0 0.0
2018-Feb-12 01:00N 35°29' E 140°01'0 0.0
2018-Feb-12 00:30N 35°29' E 140°01'0 0.0
2018-Feb-12 00:00N 35°29' E 140°01'0 0.0
2018-Feb-11 23:30N 35°29' E 140°01'0 0.0
2018-Feb-11 23:00N 35°29' E 140°01'0 0.0
2018-Feb-11 22:30N 35°29' E 140°01'1 2.2
2018-Feb-11 22:00N 35°29' E 139°60'2 3.0
2018-Feb-11 21:30N 35°30' E 139°58'0 0.1
2018-Feb-11 20:58N 35°30' E 139°58'0 0.0
2018-Feb-11 20:31N 35°30' E 139°58'0 0.0
2018-Feb-11 20:00N 35°30' E 139°58'0 0.0
2018-Feb-11 19:29N 35°30' E 139°58'0 0.0
2018-Feb-11 19:00N 35°30' E 139°58'0 0.0
2018-Feb-11 18:31N 35°30' E 139°58'0 0.0
2018-Feb-11 18:01N 35°30' E 139°58'0 0.0
2018-Feb-11 17:30N 35°30' E 139°58'0 0.0
2018-Feb-11 17:00N 35°30' E 139°58'0 0.0
2018-Feb-11 16:30N 35°30' E 139°58'0 0.0
2018-Feb-11 16:00N 35°30' E 139°58'0 0.0
2018-Feb-11 15:31N 35°30' E 139°58'0 0.0
2018-Feb-11 15:00N 35°30' E 139°58'0 0.0
2018-Feb-11 14:29N 35°30' E 139°58'0 0.0
2018-Feb-11 14:00N 35°30' E 139°58'0 0.0
2018-Feb-11 13:30N 35°30' E 139°58'0 0.0
2018-Feb-11 13:00N 35°30' E 139°58'3 5.6
2018-Feb-11 12:31N 35°30' E 139°54'611.2
2018-Feb-11 12:00N 35°26' E 139°49'611.4
2018-Feb-11 11:30N 35°21' E 139°45'510.4
2018-Feb-11 11:00N 35°16' E 139°46'510.6
2018-Feb-11 10:30N 35°11' E 139°47'612.3
2018-Feb-11 10:00N 35°05' E 139°45'911.5
2018-Feb-11 09:14N 34°56' E 139°43'7 4.7
2018-Feb-11 07:45N 34°50' E 139°46'1 4.4
2018-Feb-11 07:30N 34°50' E 139°48'9 5.3
2018-Feb-11 05:49N 34°53' E 139°58'3 6.8
2018-Feb-11 05:23N 34°54' E 140°01'2 6.4
2018-Feb-11 05:00N 34°55' E 140°04'3 6.5
2018-Feb-11 04:30N 34°57' E 140°07'4 8.4
2018-Feb-11 03:58N 34°59' E 140°12'7 9.5
2018-Feb-11 03:12N 35°03' E 140°20'  
2018-Feb-08 08:30N 35°19' E 139°43'1010.3
2018-Feb-08 07:30N 35°28' E 139°49'10 3.2
2018-Feb-08 04:30N 35°28' E 140°01'0 0.0
2018-Feb-08 04:00N 35°28' E 140°01'0 0.0
2018-Feb-08 01:30N 35°28' E 140°01'0 0.0
2018-Feb-08 00:58N 35°28' E 140°01'0 0.0
2018-Feb-08 00:28N 35°28' E 140°01'0 0.0
2018-Feb-08 00:00N 35°28' E 140°01'0 0.0
2018-Feb-07 23:30N 35°28' E 140°01'0 0.4
2018-Feb-07 23:00N 35°29' E 140°01'3 5.7
2018-Feb-07 22:30N 35°30' E 139°58'0 0.2
2018-Feb-07 21:55N 35°30' E 139°58'0 0.0
2018-Feb-07 21:28N 35°30' E 139°58'  
Track history (hours):
 
Tides and Currents Weather Stations Pressure Air Temp Water Temp Dewpoint Dewpoint Depression Visibility Wind Speed Wind Dir Waves Ship Positions

Kiyomaru No.8

Last reported at 2018-Feb-14 15:51 UTC. Time now 2018-Feb-19 14:20 UTC.
Position N 34°53' E 139°41'.

Length 104 m; draft 6.7 m.

Type: Ship. MMSI: 431000384.

Date/timePositionNaut miles runAvg speedWind from/ knotsBaromVisibWave heightAir tempDewpointWater temp
2018-Feb-14 15:51N 34°53' E 139°41'5 8.5
2018-Feb-14 15:13N 34°59' E 139°41'2 6.8
2018-Feb-14 14:58N 35°00' E 139°42'4 8.1
2018-Feb-14 14:30N 35°04' E 139°43'4 8.7
2018-Feb-14 14:00N 35°08' E 139°45'5 9.5
2018-Feb-14 13:30N 35°13' E 139°46'510.4
2018-Feb-14 13:00N 35°18' E 139°44'611.1
2018-Feb-14 12:30N 35°23' E 139°42'510.8
2018-Feb-14 12:00N 35°27' E 139°47'510.7
2018-Feb-14 11:30N 35°30' E 139°52'510.4
2018-Feb-14 11:00N 35°30' E 139°59'2 3.8
2018-Feb-14 10:30N 35°29' E 140°01'0 0.0
2018-Feb-14 10:00N 35°29' E 140°01'0 0.0
2018-Feb-14 09:29N 35°29' E 140°01'0 0.0
2018-Feb-14 09:00N 35°29' E 140°01'0 0.0
2018-Feb-14 08:30N 35°29' E 140°01'0 0.0
2018-Feb-14 08:00N 35°29' E 140°01'0 0.0
2018-Feb-14 07:30N 35°29' E 140°01'0 0.0
2018-Feb-14 06:59N 35°29' E 140°01'0 0.0
2018-Feb-14 06:30N 35°29' E 140°01'0 0.0
2018-Feb-14 05:59N 35°29' E 140°01'0 0.0
2018-Feb-14 05:30N 35°29' E 140°01'0 0.0
2018-Feb-14 05:00N 35°29' E 140°01'0 0.0
2018-Feb-14 04:30N 35°29' E 140°01'0 0.0
2018-Feb-14 04:00N 35°29' E 140°01'0 0.0
2018-Feb-14 03:30N 35°29' E 140°01'1 2.1
2018-Feb-14 03:00N 35°29' E 139°60'611.6
2018-Feb-14 02:30N 35°29' E 139°53'612.3
2018-Feb-14 02:00N 35°25' E 139°47'612.2
2018-Feb-14 01:30N 35°19' E 139°44'611.8
2018-Feb-14 01:00N 35°14' E 139°47'612.1
2018-Feb-14 00:30N 35°08' E 139°46'612.2
2018-Feb-14 00:00N 35°02' E 139°44'1010.3
2018-Feb-13 23:02N 34°52' E 139°47'112.0
2018-Feb-13 22:59N 34°52' E 139°48'1212.2
2018-Feb-13 21:59N 34°54' E 140°02'612.4
2018-Feb-13 21:28N 34°58' E 140°09'1 0.0
2018-Feb-12 12:31N 34°57' E 140°08'012.1
2018-Feb-12 12:30N 34°57' E 140°08'21 8.6
2018-Feb-12 10:06N 34°58' E 139°43'3 9.8
2018-Feb-12 09:46N 35°02' E 139°43'3 9.1
2018-Feb-12 09:28N 35°04' E 139°44'4 9.3
2018-Feb-12 09:00N 35°09' E 139°45'510.4
2018-Feb-12 08:30N 35°14' E 139°46'611.9
2018-Feb-12 08:00N 35°19' E 139°43'510.8
2018-Feb-12 07:31N 35°24' E 139°43'510.8
2018-Feb-12 07:00N 35°28' E 139°49'510.5
2018-Feb-12 06:31N 35°30' E 139°54'510.0
2018-Feb-12 06:01N 35°29' E 140°00'1 1.0
2018-Feb-12 05:30N 35°29' E 140°01'0 0.0
2018-Feb-12 05:00N 35°29' E 140°01'0 0.0
2018-Feb-12 04:30N 35°29' E 140°01'0 0.0
2018-Feb-12 04:00N 35°29' E 140°01'0 0.0
2018-Feb-12 03:30N 35°29' E 140°01'0 0.0
2018-Feb-12 03:00N 35°29' E 140°01'0 0.0
2018-Feb-12 02:29N 35°29' E 140°01'0 0.0
2018-Feb-12 02:00N 35°29' E 140°01'0 0.0
2018-Feb-12 01:30N 35°29' E 140°01'0 0.0
2018-Feb-12 01:00N 35°29' E 140°01'0 0.0
2018-Feb-12 00:30N 35°29' E 140°01'0 0.0
2018-Feb-12 00:00N 35°29' E 140°01'0 0.0
2018-Feb-11 23:30N 35°29' E 140°01'0 0.0
2018-Feb-11 23:00N 35°29' E 140°01'0 0.0
2018-Feb-11 22:30N 35°29' E 140°01'1 2.2
2018-Feb-11 22:00N 35°29' E 139°60'2 3.0
2018-Feb-11 21:30N 35°30' E 139°58'0 0.1
2018-Feb-11 20:58N 35°30' E 139°58'0 0.0
2018-Feb-11 20:31N 35°30' E 139°58'0 0.0
2018-Feb-11 20:00N 35°30' E 139°58'0 0.0
2018-Feb-11 19:29N 35°30' E 139°58'0 0.0
2018-Feb-11 19:00N 35°30' E 139°58'0 0.0
2018-Feb-11 18:31N 35°30' E 139°58'0 0.0
2018-Feb-11 18:01N 35°30' E 139°58'0 0.0
2018-Feb-11 17:30N 35°30' E 139°58'0 0.0
2018-Feb-11 17:00N 35°30' E 139°58'0 0.0
2018-Feb-11 16:30N 35°30' E 139°58'0 0.0
2018-Feb-11 16:00N 35°30' E 139°58'0 0.0
2018-Feb-11 15:31N 35°30' E 139°58'0 0.0
2018-Feb-11 15:00N 35°30' E 139°58'0 0.0
2018-Feb-11 14:29N 35°30' E 139°58'0 0.0
2018-Feb-11 14:00N 35°30' E 139°58'0 0.0
2018-Feb-11 13:30N 35°30' E 139°58'0 0.0
2018-Feb-11 13:00N 35°30' E 139°58'3 5.6
2018-Feb-11 12:31N 35°30' E 139°54'611.2
2018-Feb-11 12:00N 35°26' E 139°49'611.4
2018-Feb-11 11:30N 35°21' E 139°45'510.4
2018-Feb-11 11:00N 35°16' E 139°46'510.6
2018-Feb-11 10:30N 35°11' E 139°47'612.3
2018-Feb-11 10:00N 35°05' E 139°45'911.5
2018-Feb-11 09:14N 34°56' E 139°43'7 4.7
2018-Feb-11 07:45N 34°50' E 139°46'1 4.4
2018-Feb-11 07:30N 34°50' E 139°48'9 5.3
2018-Feb-11 05:49N 34°53' E 139°58'3 6.8
2018-Feb-11 05:23N 34°54' E 140°01'2 6.4
2018-Feb-11 05:00N 34°55' E 140°04'3 6.5
2018-Feb-11 04:30N 34°57' E 140°07'4 8.4
2018-Feb-11 03:58N 34°59' E 140°12'7 9.5
2018-Feb-11 03:12N 35°03' E 140°20'  
2018-Feb-08 08:30N 35°19' E 139°43'1010.3
2018-Feb-08 07:30N 35°28' E 139°49'10 3.2
2018-Feb-08 04:30N 35°28' E 140°01'0 0.0
2018-Feb-08 04:00N 35°28' E 140°01'0 0.0
2018-Feb-08 01:30N 35°28' E 140°01'0 0.0
2018-Feb-08 00:58N 35°28' E 140°01'0 0.0
2018-Feb-08 00:28N 35°28' E 140°01'0 0.0
2018-Feb-08 00:00N 35°28' E 140°01'0 0.0
2018-Feb-07 23:30N 35°28' E 140°01'0 0.4
2018-Feb-07 23:00N 35°29' E 140°01'3 5.7
2018-Feb-07 22:30N 35°30' E 139°58'0 0.2
2018-Feb-07 21:55N 35°30' E 139°58'0 0.0
2018-Feb-07 21:28N 35°30' E 139°58'  

Dump ship's entire track history